sensor_id;sensor_type;location;lat;lon;timestamp;P1;durP1;ratioP1;P2;durP2;ratioP2
53245;SDS011;39569;51.090;-1.786;2022-08-25T00:00:43;7.35;;;6.70;;
53245;SDS011;39569;51.090;-1.786;2022-08-25T00:03:10;7.10;;;6.53;;
53245;SDS011;39569;51.090;-1.786;2022-08-25T00:05:37;8.73;;;7.05;;
53245;SDS011;39569;51.090;-1.786;2022-08-25T00:08:04;11.02;;;5.82;;
53245;SDS011;39569;51.090;-1.786;2022-08-25T00:10:32;8.13;;;7.43;;
53245;SDS011;39569;51.090;-1.786;2022-08-25T00:13:00;10.30;;;6.73;;
53245;SDS011;39569;51.090;-1.786;2022-08-25T00:15:28;9.60;;;8.65;;
53245;SDS011;39569;51.090;-1.786;2022-08-25T00:17:58;15.15;;;7.65;;
53245;SDS011;39569;51.090;-1.786;2022-08-25T00:20:25;8.82;;;7.53;;
53245;SDS011;39569;51.090;-1.786;2022-08-25T00:22:53;8.70;;;8.00;;
53245;SDS011;39569;51.090;-1.786;2022-08-25T00:25:21;9.68;;;8.75;;
53245;SDS011;39569;51.090;-1.786;2022-08-25T00:27:48;8.32;;;7.63;;
53245;SDS011;39569;51.090;-1.786;2022-08-25T00:30:16;16.20;;;9.20;;
53245;SDS011;39569;51.090;-1.786;2022-08-25T00:32:43;10.38;;;8.95;;
53245;SDS011;39569;51.090;-1.786;2022-08-25T00:35:12;13.77;;;10.18;;
53245;SDS011;39569;51.090;-1.786;2022-08-25T00:37:39;10.52;;;9.52;;
53245;SDS011;39569;51.090;-1.786;2022-08-25T00:40:06;10.90;;;9.90;;
53245;SDS011;39569;51.090;-1.786;2022-08-25T00:42:34;13.43;;;12.23;;
53245;SDS011;39569;51.090;-1.786;2022-08-25T00:45:02;13.25;;;12.05;;
53245;SDS011;39569;51.090;-1.786;2022-08-25T00:47:30;15.13;;;12.18;;
53245;SDS011;39569;51.090;-1.786;2022-08-25T00:49:57;16.80;;;15.07;;
53245;SDS011;39569;51.090;-1.786;2022-08-25T00:52:28;18.98;;;13.85;;
53245;SDS011;39569;51.090;-1.786;2022-08-25T00:54:59;16.55;;;14.80;;
53245;SDS011;39569;51.090;-1.786;2022-08-25T00:57:29;19.48;;;17.60;;
53245;SDS011;39569;51.090;-1.786;2022-08-25T00:59:58;19.08;;;17.48;;
53245;SDS011;39569;51.090;-1.786;2022-08-25T01:02:26;20.98;;;18.83;;
53245;SDS011;39569;51.090;-1.786;2022-08-25T01:04:52;22.65;;;20.20;;
53245;SDS011;39569;51.090;-1.786;2022-08-25T01:07:19;23.30;;;20.88;;
53245;SDS011;39569;51.090;-1.786;2022-08-25T01:09:49;25.10;;;19.90;;
53245;SDS011;39569;51.090;-1.786;2022-08-25T01:12:18;25.05;;;21.08;;
53245;SDS011;39569;51.090;-1.786;2022-08-25T01:14:45;21.45;;;19.45;;
53245;SDS011;39569;51.090;-1.786;2022-08-25T01:17:14;21.48;;;19.50;;
53245;SDS011;39569;51.090;-1.786;2022-08-25T01:19:41;24.50;;;22.13;;
53245;SDS011;39569;51.090;-1.786;2022-08-25T01:22:09;26.98;;;21.55;;
53245;SDS011;39569;51.090;-1.786;2022-08-25T01:24:37;21.65;;;19.67;;
53245;SDS011;39569;51.090;-1.786;2022-08-25T01:27:08;22.77;;;20.52;;
53245;SDS011;39569;51.090;-1.786;2022-08-25T01:29:36;23.70;;;20.45;;
53245;SDS011;39569;51.090;-1.786;2022-08-25T01:32:06;24.00;;;21.77;;
53245;SDS011;39569;51.090;-1.786;2022-08-25T01:34:37;23.63;;;21.20;;
53245;SDS011;39569;51.090;-1.786;2022-08-25T01:37:06;21.77;;;19.50;;
53245;SDS011;39569;51.090;-1.786;2022-08-25T01:39:35;22.45;;;20.23;;
53245;SDS011;39569;51.090;-1.786;2022-08-25T01:42:12;24.77;;;22.13;;
53245;SDS011;39569;51.090;-1.786;2022-08-25T01:44:48;26.40;;;23.67;;
53245;SDS011;39569;51.090;-1.786;2022-08-25T01:47:16;28.38;;;25.67;;
53245;SDS011;39569;51.090;-1.786;2022-08-25T01:49:43;29.40;;;26.35;;
53245;SDS011;39569;51.090;-1.786;2022-08-25T01:52:11;30.88;;;27.67;;
53245;SDS011;39569;51.090;-1.786;2022-08-25T01:54:42;30.35;;;25.88;;
53245;SDS011;39569;51.090;-1.786;2022-08-25T01:57:09;31.73;;;28.15;;
53245;SDS011;39569;51.090;-1.786;2022-08-25T01:59:36;33.90;;;30.33;;
53245;SDS011;39569;51.090;-1.786;2022-08-25T02:02:03;31.65;;;28.35;;
53245;SDS011;39569;51.090;-1.786;2022-08-25T02:04:30;30.08;;;27.02;;
53245;SDS011;39569;51.090;-1.786;2022-08-25T02:06:57;29.00;;;25.98;;
53245;SDS011;39569;51.090;-1.786;2022-08-25T02:09:24;28.67;;;25.80;;
53245;SDS011;39569;51.090;-1.786;2022-08-25T02:11:52;29.85;;;26.77;;
53245;SDS011;39569;51.090;-1.786;2022-08-25T02:14:20;27.20;;;23.90;;
53245;SDS011;39569;51.090;-1.786;2022-08-25T02:16:49;29.58;;;26.42;;
53245;SDS011;39569;51.090;-1.786;2022-08-25T02:19:17;29.55;;;24.00;;
53245;SDS011;39569;51.090;-1.786;2022-08-25T02:21:45;26.63;;;23.98;;
53245;SDS011;39569;51.090;-1.786;2022-08-25T02:24:13;26.95;;;24.15;;
53245;SDS011;39569;51.090;-1.786;2022-08-25T02:26:40;24.77;;;22.20;;
53245;SDS011;39569;51.090;-1.786;2022-08-25T02:29:08;23.70;;;21.35;;
53245;SDS011;39569;51.090;-1.786;2022-08-25T02:31:36;24.90;;;22.42;;
53245;SDS011;39569;51.090;-1.786;2022-08-25T02:34:03;27.05;;;24.00;;
53245;SDS011;39569;51.090;-1.786;2022-08-25T02:36:31;25.92;;;21.33;;
53245;SDS011;39569;51.090;-1.786;2022-08-25T02:38:58;22.65;;;20.45;;
53245;SDS011;39569;51.090;-1.786;2022-08-25T02:41:25;25.35;;;22.70;;
53245;SDS011;39569;51.090;-1.786;2022-08-25T02:43:53;25.52;;;22.77;;
53245;SDS011;39569;51.090;-1.786;2022-08-25T02:46:21;25.55;;;21.95;;
53245;SDS011;39569;51.090;-1.786;2022-08-25T02:48:50;24.08;;;21.23;;
53245;SDS011;39569;51.090;-1.786;2022-08-25T02:51:17;22.88;;;20.35;;
53245;SDS011;39569;51.090;-1.786;2022-08-25T02:53:46;25.00;;;21.60;;
53245;SDS011;39569;51.090;-1.786;2022-08-25T02:56:14;25.55;;;20.55;;
53245;SDS011;39569;51.090;-1.786;2022-08-25T02:58:42;24.13;;;19.08;;
53245;SDS011;39569;51.090;-1.786;2022-08-25T03:01:10;23.58;;;21.25;;
53245;SDS011;39569;51.090;-1.786;2022-08-25T03:03:38;19.85;;;18.00;;
53245;SDS011;39569;51.090;-1.786;2022-08-25T03:06:07;23.50;;;21.15;;
53245;SDS011;39569;51.090;-1.786;2022-08-25T03:08:34;23.88;;;21.48;;
53245;SDS011;39569;51.090;-1.786;2022-08-25T03:11:02;22.83;;;20.52;;
53245;SDS011;39569;51.090;-1.786;2022-08-25T03:13:29;23.45;;;21.25;;
53245;SDS011;39569;51.090;-1.786;2022-08-25T03:15:57;27.58;;;21.02;;
53245;SDS011;39569;51.090;-1.786;2022-08-25T03:18:24;23.30;;;21.20;;
53245;SDS011;39569;51.090;-1.786;2022-08-25T03:20:53;22.92;;;20.88;;
53245;SDS011;39569;51.090;-1.786;2022-08-25T03:23:19;29.63;;;20.77;;
53245;SDS011;39569;51.090;-1.786;2022-08-25T03:25:46;21.33;;;19.25;;
53245;SDS011;39569;51.090;-1.786;2022-08-25T03:28:31;22.60;;;19.67;;
53245;SDS011;39569;51.090;-1.786;2022-08-25T03:30:58;20.65;;;18.45;;
53245;SDS011;39569;51.090;-1.786;2022-08-25T03:33:25;20.05;;;17.98;;
53245;SDS011;39569;51.090;-1.786;2022-08-25T03:35:54;21.98;;;19.13;;
53245;SDS011;39569;51.090;-1.786;2022-08-25T03:38:21;25.20;;;19.13;;
53245;SDS011;39569;51.090;-1.786;2022-08-25T03:40:49;20.75;;;18.33;;
53245;SDS011;39569;51.090;-1.786;2022-08-25T03:43:16;19.88;;;17.52;;
53245;SDS011;39569;51.090;-1.786;2022-08-25T03:45:43;21.38;;;18.73;;
53245;SDS011;39569;51.090;-1.786;2022-08-25T03:48:12;22.95;;;18.63;;
53245;SDS011;39569;51.090;-1.786;2022-08-25T03:50:42;20.40;;;18.52;;
53245;SDS011;39569;51.090;-1.786;2022-08-25T03:53:11;21.27;;;19.00;;
53245;SDS011;39569;51.090;-1.786;2022-08-25T03:55:39;19.80;;;17.70;;
53245;SDS011;39569;51.090;-1.786;2022-08-25T03:58:06;18.08;;;16.05;;
53245;SDS011;39569;51.090;-1.786;2022-08-25T04:00:33;22.20;;;18.20;;
53245;SDS011;39569;51.090;-1.786;2022-08-25T04:03:00;19.58;;;17.67;;
53245;SDS011;39569;51.090;-1.786;2022-08-25T04:05:27;19.02;;;17.08;;
53245;SDS011;39569;51.090;-1.786;2022-08-25T04:07:54;19.27;;;17.38;;
53245;SDS011;39569;51.090;-1.786;2022-08-25T04:10:22;17.95;;;16.05;;
53245;SDS011;39569;51.090;-1.786;2022-08-25T04:12:49;16.85;;;15.18;;
53245;SDS011;39569;51.090;-1.786;2022-08-25T04:15:16;15.82;;;14.20;;
53245;SDS011;39569;51.090;-1.786;2022-08-25T04:17:42;20.10;;;14.52;;
53245;SDS011;39569;51.090;-1.786;2022-08-25T04:20:10;16.48;;;14.88;;
53245;SDS011;39569;51.090;-1.786;2022-08-25T04:22:37;17.33;;;14.40;;
53245;SDS011;39569;51.090;-1.786;2022-08-25T04:25:05;14.10;;;12.68;;
53245;SDS011;39569;51.090;-1.786;2022-08-25T04:27:34;13.35;;;11.25;;
53245;SDS011;39569;51.090;-1.786;2022-08-25T04:30:01;13.13;;;11.85;;
53245;SDS011;39569;51.090;-1.786;2022-08-25T04:32:29;11.50;;;10.45;;
53245;SDS011;39569;51.090;-1.786;2022-08-25T04:34:56;13.90;;;11.48;;
53245;SDS011;39569;51.090;-1.786;2022-08-25T04:37:23;13.90;;;11.80;;
53245;SDS011;39569;51.090;-1.786;2022-08-25T04:39:49;12.40;;;11.35;;
53245;SDS011;39569;51.090;-1.786;2022-08-25T04:42:16;12.10;;;10.65;;
53245;SDS011;39569;51.090;-1.786;2022-08-25T04:44:44;12.68;;;10.65;;
53245;SDS011;39569;51.090;-1.786;2022-08-25T04:47:11;11.98;;;10.93;;
53245;SDS011;39569;51.090;-1.786;2022-08-25T04:49:38;13.73;;;12.32;;
53245;SDS011;39569;51.090;-1.786;2022-08-25T04:52:04;11.65;;;10.65;;
53245;SDS011;39569;51.090;-1.786;2022-08-25T04:54:31;13.60;;;12.23;;
53245;SDS011;39569;51.090;-1.786;2022-08-25T04:56:58;12.88;;;11.52;;
53245;SDS011;39569;51.090;-1.786;2022-08-25T04:59:25;12.65;;;11.57;;
53245;SDS011;39569;51.090;-1.786;2022-08-25T05:01:54;14.27;;;12.98;;
53245;SDS011;39569;51.090;-1.786;2022-08-25T05:04:21;12.70;;;11.50;;
53245;SDS011;39569;51.090;-1.786;2022-08-25T05:06:48;13.07;;;11.90;;
53245;SDS011;39569;51.090;-1.786;2022-08-25T05:09:15;13.60;;;11.20;;
53245;SDS011;39569;51.090;-1.786;2022-08-25T05:11:42;12.80;;;11.55;;
53245;SDS011;39569;51.090;-1.786;2022-08-25T05:14:08;21.25;;;12.45;;
53245;SDS011;39569;51.090;-1.786;2022-08-25T05:16:39;13.88;;;12.60;;
53245;SDS011;39569;51.090;-1.786;2022-08-25T05:19:07;12.18;;;11.15;;
53245;SDS011;39569;51.090;-1.786;2022-08-25T05:21:34;12.40;;;11.20;;
53245;SDS011;39569;51.090;-1.786;2022-08-25T05:24:01;13.10;;;11.80;;
53245;SDS011;39569;51.090;-1.786;2022-08-25T05:26:29;20.02;;;11.77;;
53245;SDS011;39569;51.090;-1.786;2022-08-25T05:28:58;16.25;;;11.10;;
53245;SDS011;39569;51.090;-1.786;2022-08-25T05:31:26;14.73;;;10.73;;
53245;SDS011;39569;51.090;-1.786;2022-08-25T05:33:53;11.40;;;10.48;;
53245;SDS011;39569;51.090;-1.786;2022-08-25T05:36:23;12.98;;;11.88;;
53245;SDS011;39569;51.090;-1.786;2022-08-25T05:38:52;12.82;;;10.65;;
53245;SDS011;39569;51.090;-1.786;2022-08-25T05:41:20;11.98;;;11.02;;
53245;SDS011;39569;51.090;-1.786;2022-08-25T05:43:50;17.60;;;13.05;;
53245;SDS011;39569;51.090;-1.786;2022-08-25T05:46:18;13.18;;;12.00;;
53245;SDS011;39569;51.090;-1.786;2022-08-25T05:48:46;14.93;;;12.27;;
53245;SDS011;39569;51.090;-1.786;2022-08-25T05:51:13;13.63;;;12.48;;
53245;SDS011;39569;51.090;-1.786;2022-08-25T05:53:42;13.90;;;12.55;;
53245;SDS011;39569;51.090;-1.786;2022-08-25T05:56:11;14.93;;;13.60;;
53245;SDS011;39569;51.090;-1.786;2022-08-25T05:58:39;15.15;;;13.88;;
53245;SDS011;39569;51.090;-1.786;2022-08-25T06:01:07;15.00;;;13.50;;
53245;SDS011;39569;51.090;-1.786;2022-08-25T06:03:52;17.67;;;15.77;;
53245;SDS011;39569;51.090;-1.786;2022-08-25T06:06:19;17.70;;;14.98;;
53245;SDS011;39569;51.090;-1.786;2022-08-25T06:08:48;16.27;;;14.60;;
53245;SDS011;39569;51.090;-1.786;2022-08-25T06:11:15;18.80;;;15.90;;
53245;SDS011;39569;51.090;-1.786;2022-08-25T06:13:42;21.83;;;16.02;;
53245;SDS011;39569;51.090;-1.786;2022-08-25T06:16:09;18.13;;;16.50;;
53245;SDS011;39569;51.090;-1.786;2022-08-25T06:18:36;18.70;;;16.92;;
53245;SDS011;39569;51.090;-1.786;2022-08-25T06:21:07;20.13;;;18.20;;
53245;SDS011;39569;51.090;-1.786;2022-08-25T06:23:35;20.55;;;18.45;;
53245;SDS011;39569;51.090;-1.786;2022-08-25T06:26:05;20.17;;;18.37;;
53245;SDS011;39569;51.090;-1.786;2022-08-25T06:28:32;19.53;;;17.53;;
53245;SDS011;39569;51.090;-1.786;2022-08-25T06:30:59;18.95;;;16.15;;
53245;SDS011;39569;51.090;-1.786;2022-08-25T06:33:27;19.67;;;16.85;;
53245;SDS011;39569;51.090;-1.786;2022-08-25T06:35:55;19.35;;;15.68;;
53245;SDS011;39569;51.090;-1.786;2022-08-25T06:38:23;18.65;;;16.25;;
53245;SDS011;39569;51.090;-1.786;2022-08-25T06:40:49;19.52;;;16.50;;
53245;SDS011;39569;51.090;-1.786;2022-08-25T06:43:18;19.73;;;15.90;;
53245;SDS011;39569;51.090;-1.786;2022-08-25T06:45:45;18.73;;;16.33;;
53245;SDS011;39569;51.090;-1.786;2022-08-25T06:48:12;18.42;;;15.82;;
53245;SDS011;39569;51.090;-1.786;2022-08-25T06:50:40;18.48;;;16.88;;
53245;SDS011;39569;51.090;-1.786;2022-08-25T06:53:07;17.15;;;15.18;;
53245;SDS011;39569;51.090;-1.786;2022-08-25T06:55:33;27.50;;;15.32;;
53245;SDS011;39569;51.090;-1.786;2022-08-25T06:58:01;21.88;;;15.10;;
53245;SDS011;39569;51.090;-1.786;2022-08-25T07:00:30;17.70;;;13.75;;
53245;SDS011;39569;51.090;-1.786;2022-08-25T07:02:57;29.92;;;14.75;;
53245;SDS011;39569;51.090;-1.786;2022-08-25T07:05:25;12.73;;;11.48;;
53245;SDS011;39569;51.090;-1.786;2022-08-25T07:07:53;20.60;;;13.77;;
53245;SDS011;39569;51.090;-1.786;2022-08-25T07:10:20;12.75;;;10.80;;
53245;SDS011;39569;51.090;-1.786;2022-08-25T07:12:46;12.02;;;10.93;;
53245;SDS011;39569;51.090;-1.786;2022-08-25T07:15:13;12.60;;;10.85;;
53245;SDS011;39569;51.090;-1.786;2022-08-25T07:17:41;14.65;;;11.10;;
53245;SDS011;39569;51.090;-1.786;2022-08-25T07:20:08;15.48;;;11.60;;
53245;SDS011;39569;51.090;-1.786;2022-08-25T07:22:35;18.40;;;12.38;;
53245;SDS011;39569;51.090;-1.786;2022-08-25T07:25:03;16.02;;;12.02;;
53245;SDS011;39569;51.090;-1.786;2022-08-25T07:27:30;11.10;;;10.20;;
53245;SDS011;39569;51.090;-1.786;2022-08-25T07:29:57;15.05;;;9.43;;
53245;SDS011;39569;51.090;-1.786;2022-08-25T07:32:23;9.52;;;8.73;;
53245;SDS011;39569;51.090;-1.786;2022-08-25T07:34:52;12.27;;;9.00;;
53245;SDS011;39569;51.090;-1.786;2022-08-25T07:37:36;11.15;;;10.02;;
53245;SDS011;39569;51.090;-1.786;2022-08-25T07:40:04;13.03;;;9.17;;
53245;SDS011;39569;51.090;-1.786;2022-08-25T07:42:32;10.37;;;8.23;;
53245;SDS011;39569;51.090;-1.786;2022-08-25T07:44:58;10.10;;;8.38;;
53245;SDS011;39569;51.090;-1.786;2022-08-25T07:47:25;9.52;;;8.65;;
53245;SDS011;39569;51.090;-1.786;2022-08-25T07:49:53;9.98;;;9.13;;
53245;SDS011;39569;51.090;-1.786;2022-08-25T07:52:20;15.93;;;11.88;;
53245;SDS011;39569;51.090;-1.786;2022-08-25T07:54:47;10.32;;;9.32;;
53245;SDS011;39569;51.090;-1.786;2022-08-25T07:57:14;17.35;;;9.40;;
53245;SDS011;39569;51.090;-1.786;2022-08-25T07:59:42;9.75;;;8.73;;
53245;SDS011;39569;51.090;-1.786;2022-08-25T08:02:11;11.07;;;8.93;;
53245;SDS011;39569;51.090;-1.786;2022-08-25T08:04:38;11.52;;;8.45;;
53245;SDS011;39569;51.090;-1.786;2022-08-25T08:07:07;13.82;;;8.93;;
53245;SDS011;39569;51.090;-1.786;2022-08-25T08:09:35;8.40;;;7.07;;
53245;SDS011;39569;51.090;-1.786;2022-08-25T08:12:02;6.25;;;5.65;;
53245;SDS011;39569;51.090;-1.786;2022-08-25T08:14:30;14.02;;;4.93;;
53245;SDS011;39569;51.090;-1.786;2022-08-25T08:16:58;7.53;;;4.60;;
53245;SDS011;39569;51.090;-1.786;2022-08-25T08:19:25;6.38;;;4.80;;
53245;SDS011;39569;51.090;-1.786;2022-08-25T08:21:51;7.97;;;5.72;;
53245;SDS011;39569;51.090;-1.786;2022-08-25T08:24:20;10.57;;;6.80;;
53245;SDS011;39569;51.090;-1.786;2022-08-25T08:26:47;16.83;;;12.98;;
53245;SDS011;39569;51.090;-1.786;2022-08-25T08:29:13;10.90;;;9.13;;
53245;SDS011;39569;51.090;-1.786;2022-08-25T08:31:41;11.30;;;9.55;;
53245;SDS011;39569;51.090;-1.786;2022-08-25T08:34:07;12.30;;;8.43;;
53245;SDS011;39569;51.090;-1.786;2022-08-25T08:36:34;10.00;;;8.27;;
53245;SDS011;39569;51.090;-1.786;2022-08-25T08:39:01;18.08;;;8.07;;
53245;SDS011;39569;51.090;-1.786;2022-08-25T08:50:45;5.95;;;3.33;;
53245;SDS011;39569;51.090;-1.786;2022-08-25T08:53:18;4.43;;;3.43;;
53245;SDS011;39569;51.090;-1.786;2022-08-25T08:55:50;3.83;;;3.53;;
53245;SDS011;39569;51.090;-1.786;2022-08-25T08:58:23;6.28;;;3.83;;
53245;SDS011;39569;51.090;-1.786;2022-08-25T09:00:54;3.85;;;3.55;;
53245;SDS011;39569;51.090;-1.786;2022-08-25T09:03:26;6.57;;;4.35;;
53245;SDS011;39569;51.090;-1.786;2022-08-25T09:05:59;7.95;;;4.20;;
53245;SDS011;39569;51.090;-1.786;2022-08-25T09:08:28;5.63;;;5.13;;
53245;SDS011;39569;51.090;-1.786;2022-08-25T09:10:57;8.10;;;5.88;;
53245;SDS011;39569;51.090;-1.786;2022-08-25T09:13:33;5.88;;;5.32;;
53245;SDS011;39569;51.090;-1.786;2022-08-25T09:16:10;6.10;;;4.75;;
53245;SDS011;39569;51.090;-1.786;2022-08-25T09:19:04;5.20;;;4.57;;
53245;SDS011;39569;51.090;-1.786;2022-08-25T09:21:40;6.35;;;4.45;;
53245;SDS011;39569;51.090;-1.786;2022-08-25T09:24:17;6.38;;;5.88;;
53245;SDS011;39569;51.090;-1.786;2022-08-25T09:26:55;9.38;;;5.25;;
53245;SDS011;39569;51.090;-1.786;2022-08-25T09:29:44;7.00;;;6.35;;
53245;SDS011;39569;51.090;-1.786;2022-08-25T09:32:24;11.93;;;7.28;;
53245;SDS011;39569;51.090;-1.786;2022-08-25T09:34:53;9.90;;;7.38;;
53245;SDS011;39569;51.090;-1.786;2022-08-25T09:37:21;7.22;;;6.63;;
53245;SDS011;39569;51.090;-1.786;2022-08-25T09:39:49;8.98;;;6.68;;
53245;SDS011;39569;51.090;-1.786;2022-08-25T09:42:17;10.45;;;8.50;;
53245;SDS011;39569;51.090;-1.786;2022-08-25T09:44:46;11.82;;;9.02;;
53245;SDS011;39569;51.090;-1.786;2022-08-25T09:47:23;9.32;;;8.18;;
53245;SDS011;39569;51.090;-1.786;2022-08-25T09:49:55;14.98;;;8.45;;
53245;SDS011;39569;51.090;-1.786;2022-08-25T09:52:29;11.20;;;8.35;;
53245;SDS011;39569;51.090;-1.786;2022-08-25T09:55:00;8.82;;;7.80;;
53245;SDS011;39569;51.090;-1.786;2022-08-25T09:57:46;11.02;;;8.73;;
53245;SDS011;39569;51.090;-1.786;2022-08-25T10:00:17;12.57;;;8.77;;
53245;SDS011;39569;51.090;-1.786;2022-08-25T10:02:59;14.70;;;10.25;;
53245;SDS011;39569;51.090;-1.786;2022-08-25T10:05:30;9.23;;;8.35;;
53245;SDS011;39569;51.090;-1.786;2022-08-25T10:07:59;8.93;;;8.10;;
53245;SDS011;39569;51.090;-1.786;2022-08-25T10:10:29;11.57;;;9.00;;
53245;SDS011;39569;51.090;-1.786;2022-08-25T10:12:58;22.13;;;9.43;;
53245;SDS011;39569;51.090;-1.786;2022-08-25T10:15:29;8.18;;;7.38;;
53245;SDS011;39569;51.090;-1.786;2022-08-25T10:18:15;10.13;;;8.65;;
53245;SDS011;39569;51.090;-1.786;2022-08-25T10:20:59;9.70;;;7.00;;
53245;SDS011;39569;51.090;-1.786;2022-08-25T10:23:27;10.18;;;6.93;;
53245;SDS011;39569;51.090;-1.786;2022-08-25T10:25:54;6.70;;;6.07;;
53245;SDS011;39569;51.090;-1.786;2022-08-25T10:28:25;7.47;;;6.55;;
53245;SDS011;39569;51.090;-1.786;2022-08-25T10:31:05;8.38;;;6.40;;
53245;SDS011;39569;51.090;-1.786;2022-08-25T10:33:42;7.60;;;6.90;;
53245;SDS011;39569;51.090;-1.786;2022-08-25T10:38:46;15.43;;;5.85;;
53245;SDS011;39569;51.090;-1.786;2022-08-25T10:41:30;6.47;;;5.25;;
53245;SDS011;39569;51.090;-1.786;2022-08-25T10:44:12;7.40;;;6.75;;
53245;SDS011;39569;51.090;-1.786;2022-08-25T10:47:07;8.45;;;7.50;;
53245;SDS011;39569;51.090;-1.786;2022-08-25T10:49:47;10.77;;;9.23;;
53245;SDS011;39569;51.090;-1.786;2022-08-25T10:52:20;12.15;;;11.00;;
53245;SDS011;39569;51.090;-1.786;2022-08-25T10:54:56;11.27;;;9.98;;
53245;SDS011;39569;51.090;-1.786;2022-08-25T10:57:29;11.23;;;10.13;;
53245;SDS011;39569;51.090;-1.786;2022-08-25T11:00:03;9.07;;;8.18;;
53245;SDS011;39569;51.090;-1.786;2022-08-25T11:02:55;10.45;;;9.45;;
53245;SDS011;39569;51.090;-1.786;2022-08-25T11:05:33;11.57;;;10.55;;
53245;SDS011;39569;51.090;-1.786;2022-08-25T11:08:07;12.80;;;11.45;;
53245;SDS011;39569;51.090;-1.786;2022-08-25T11:10:41;13.68;;;12.23;;
53245;SDS011;39569;51.090;-1.786;2022-08-25T11:13:14;14.60;;;12.93;;
53245;SDS011;39569;51.090;-1.786;2022-08-25T11:15:50;14.85;;;11.82;;
53245;SDS011;39569;51.090;-1.786;2022-08-25T11:18:21;20.92;;;13.30;;
53245;SDS011;39569;51.090;-1.786;2022-08-25T11:20:54;16.70;;;15.05;;
53245;SDS011;39569;51.090;-1.786;2022-08-25T11:23:34;19.05;;;16.30;;
53245;SDS011;39569;51.090;-1.786;2022-08-25T11:26:05;23.40;;;17.48;;
53245;SDS011;39569;51.090;-1.786;2022-08-25T11:28:38;19.25;;;17.10;;
53245;SDS011;39569;51.090;-1.786;2022-08-25T11:31:14;21.42;;;18.55;;
53245;SDS011;39569;51.090;-1.786;2022-08-25T11:33:45;18.60;;;16.17;;
53245;SDS011;39569;51.090;-1.786;2022-08-25T11:36:16;27.25;;;17.88;;
53245;SDS011;39569;51.090;-1.786;2022-08-25T11:38:52;19.73;;;17.83;;
53245;SDS011;39569;51.090;-1.786;2022-08-25T11:41:30;19.60;;;17.52;;
53245;SDS011;39569;51.090;-1.786;2022-08-25T11:44:10;26.35;;;19.20;;
53245;SDS011;39569;51.090;-1.786;2022-08-25T11:46:49;21.15;;;19.38;;
53245;SDS011;39569;51.090;-1.786;2022-08-25T11:49:32;20.73;;;18.60;;
53245;SDS011;39569;51.090;-1.786;2022-08-25T11:55:14;19.73;;;18.02;;
53245;SDS011;39569;51.090;-1.786;2022-08-25T11:57:43;21.05;;;18.90;;
53245;SDS011;39569;51.090;-1.786;2022-08-25T12:00:12;20.30;;;18.42;;
53245;SDS011;39569;51.090;-1.786;2022-08-25T12:02:42;21.17;;;19.38;;
53245;SDS011;39569;51.090;-1.786;2022-08-25T12:08:47;20.20;;;18.50;;
53245;SDS011;39569;51.090;-1.786;2022-08-25T12:14:16;21.60;;;19.65;;
53245;SDS011;39569;51.090;-1.786;2022-08-25T12:17:10;20.30;;;18.63;;
53245;SDS011;39569;51.090;-1.786;2022-08-25T12:19:48;20.10;;;18.30;;
53245;SDS011;39569;51.090;-1.786;2022-08-25T12:25:06;38.83;;;19.33;;
53245;SDS011;39569;51.090;-1.786;2022-08-25T12:27:39;20.30;;;17.85;;
53245;SDS011;39569;51.090;-1.786;2022-08-25T12:30:14;23.08;;;19.42;;
53245;SDS011;39569;51.090;-1.786;2022-08-25T12:32:58;18.52;;;16.88;;
53245;SDS011;39569;51.090;-1.786;2022-08-25T12:35:36;16.80;;;15.52;;
53245;SDS011;39569;51.090;-1.786;2022-08-25T12:38:06;16.05;;;14.95;;
53245;SDS011;39569;51.090;-1.786;2022-08-25T12:40:37;16.25;;;14.80;;
53245;SDS011;39569;51.090;-1.786;2022-08-25T12:43:23;14.25;;;13.00;;
53245;SDS011;39569;51.090;-1.786;2022-08-25T12:45:54;14.52;;;13.40;;
53245;SDS011;39569;51.090;-1.786;2022-08-25T12:48:42;14.93;;;13.65;;
53245;SDS011;39569;51.090;-1.786;2022-08-25T12:51:21;12.52;;;11.07;;
53245;SDS011;39569;51.090;-1.786;2022-08-25T12:53:50;11.82;;;10.70;;
53245;SDS011;39569;51.090;-1.786;2022-08-25T12:56:25;12.00;;;10.07;;
53245;SDS011;39569;51.090;-1.786;2022-08-25T12:59:06;10.93;;;10.02;;
53245;SDS011;39569;51.090;-1.786;2022-08-25T13:01:46;10.90;;;9.27;;
53245;SDS011;39569;51.090;-1.786;2022-08-25T13:07:26;10.82;;;9.70;;
53245;SDS011;39569;51.090;-1.786;2022-08-25T13:10:10;10.82;;;9.18;;
53245;SDS011;39569;51.090;-1.786;2022-08-25T13:12:46;9.20;;;8.20;;
53245;SDS011;39569;51.090;-1.786;2022-08-25T13:15:24;9.00;;;8.15;;
53245;SDS011;39569;51.090;-1.786;2022-08-25T13:17:53;9.77;;;8.23;;
53245;SDS011;39569;51.090;-1.786;2022-08-25T13:20:22;10.63;;;7.50;;
53245;SDS011;39569;51.090;-1.786;2022-08-25T13:22:51;11.65;;;8.30;;
53245;SDS011;39569;51.090;-1.786;2022-08-25T13:25:22;7.70;;;6.95;;
53245;SDS011;39569;51.090;-1.786;2022-08-25T13:27:53;8.23;;;7.47;;
53245;SDS011;39569;51.090;-1.786;2022-08-25T13:30:23;9.32;;;7.70;;
53245;SDS011;39569;51.090;-1.786;2022-08-25T13:32:52;7.13;;;6.63;;
53245;SDS011;39569;51.090;-1.786;2022-08-25T13:35:20;7.53;;;6.85;;
53245;SDS011;39569;51.090;-1.786;2022-08-25T13:37:49;8.68;;;7.72;;
53245;SDS011;39569;51.090;-1.786;2022-08-25T13:40:19;7.00;;;6.40;;
53245;SDS011;39569;51.090;-1.786;2022-08-25T13:42:49;10.13;;;7.40;;
53245;SDS011;39569;51.090;-1.786;2022-08-25T13:45:19;6.90;;;6.30;;
53245;SDS011;39569;51.090;-1.786;2022-08-25T13:47:49;7.50;;;6.82;;
53245;SDS011;39569;51.090;-1.786;2022-08-25T13:50:21;7.45;;;6.63;;
53245;SDS011;39569;51.090;-1.786;2022-08-25T13:52:56;5.20;;;4.80;;
53245;SDS011;39569;51.090;-1.786;2022-08-25T13:55:25;7.25;;;4.78;;
53245;SDS011;39569;51.090;-1.786;2022-08-25T13:57:55;6.43;;;5.82;;
53245;SDS011;39569;51.090;-1.786;2022-08-25T14:00:26;6.60;;;6.00;;
53245;SDS011;39569;51.090;-1.786;2022-08-25T14:02:56;8.55;;;6.93;;
53245;SDS011;39569;51.090;-1.786;2022-08-25T14:05:29;7.88;;;6.68;;
53245;SDS011;39569;51.090;-1.786;2022-08-25T14:07:59;5.88;;;5.40;;
53245;SDS011;39569;51.090;-1.786;2022-08-25T14:10:31;5.40;;;5.00;;
53245;SDS011;39569;51.090;-1.786;2022-08-25T14:13:08;5.30;;;4.90;;
53245;SDS011;39569;51.090;-1.786;2022-08-25T14:15:39;8.75;;;4.82;;
53245;SDS011;39569;51.090;-1.786;2022-08-25T14:18:07;3.90;;;3.60;;
53245;SDS011;39569;51.090;-1.786;2022-08-25T14:20:42;5.93;;;3.63;;
53245;SDS011;39569;51.090;-1.786;2022-08-25T14:23:14;4.53;;;4.18;;
53245;SDS011;39569;51.090;-1.786;2022-08-25T14:25:43;2.92;;;2.70;;
53245;SDS011;39569;51.090;-1.786;2022-08-25T14:28:12;2.90;;;2.70;;
53245;SDS011;39569;51.090;-1.786;2022-08-25T14:30:43;4.05;;;3.75;;
53245;SDS011;39569;51.090;-1.786;2022-08-25T14:33:14;3.28;;;3.08;;
53245;SDS011;39569;51.090;-1.786;2022-08-25T14:35:43;3.85;;;3.55;;
53245;SDS011;39569;51.090;-1.786;2022-08-25T14:38:12;4.03;;;3.67;;
53245;SDS011;39569;51.090;-1.786;2022-08-25T14:40:40;4.60;;;4.20;;
53245;SDS011;39569;51.090;-1.786;2022-08-25T14:43:07;5.38;;;4.78;;
53245;SDS011;39569;51.090;-1.786;2022-08-25T14:45:34;4.50;;;4.05;;
53245;SDS011;39569;51.090;-1.786;2022-08-25T14:48:04;4.25;;;3.88;;
53245;SDS011;39569;51.090;-1.786;2022-08-25T14:50:33;4.13;;;3.90;;
53245;SDS011;39569;51.090;-1.786;2022-08-25T14:53:01;4.18;;;3.88;;
53245;SDS011;39569;51.090;-1.786;2022-08-25T14:55:28;4.38;;;3.95;;
53245;SDS011;39569;51.090;-1.786;2022-08-25T14:57:55;7.60;;;3.50;;
53245;SDS011;39569;51.090;-1.786;2022-08-25T15:00:22;5.73;;;3.67;;